Time;durP1;ratioP1;P1;durP2;ratioP2;P2;SDS_P1;SDS_P2;PMS_P1;PMS_P2;Temp;Humidity;BMP_temperature;BMP_pressure;BME280_temperature;BME280_humidity;BME280_pressure;Samples;Min_cycle;Max_cycle;Signal;HPM_P1;HPM_P2
2023/12/01 00:01:23;;;;;;;;;;;;;;;3.95;100.00;96092.36;110375;1242;71443;-67
2023/12/01 00:03:52;;;;;;;;;;;;;;;3.97;100.00;96086.20;110441;1242;69836;-67
2023/12/01 00:06:21;;;;;;;;;;;;;;;3.99;100.00;96086.59;110330;1242;69258;-67
2023/12/01 00:08:50;;;;;;;;;;;;;;;4.01;100.00;96079.72;110376;1244;60061;-67
2023/12/01 00:11:20;;;;;;;;;;;;;;;4.02;100.00;96079.98;110301;1242;59675;-67
2023/12/01 00:13:50;;;;;;;;;;;;;;;4.04;100.00;96080.87;110360;1242;70608;-67
2023/12/01 00:16:20;;;;;;;;;;;;;;;4.05;100.00;96081.48;110361;1248;69498;-67
2023/12/01 00:18:50;;;;;;;;;;;;;;;4.07;100.00;96081.55;110333;1242;68213;-67
2023/12/01 00:21:21;;;;;;;;;;;;;;;4.08;100.00;96078.00;110332;1241;59726;-67
2023/12/01 00:23:52;;;;;;;;;;;;;;;4.11;100.00;96070.23;110317;1242;60107;-68
2023/12/01 00:26:22;;;;;;;;;;;;;;;4.14;100.00;96070.59;110277;1240;71203;-68
2023/12/01 00:28:58;;;;;;;;;;;;;;;4.16;100.00;96073.71;110286;1242;68528;-67
2023/12/01 00:31:29;;;;;;;;;;;;;;;4.18;100.00;96078.77;110141;1245;69109;-67
2023/12/01 00:34:00;;;;;;;;;;;;;;;4.19;100.00;96072.15;110390;1241;59681;-67
2023/12/01 00:36:33;;;;;;;;;;;;;;;4.21;100.00;96071.31;110147;1245;59737;-67
2023/12/01 00:39:04;;;;;;;;;;;;;;;4.21;100.00;96058.90;110316;1241;71392;-67
2023/12/01 00:41:34;;;;;;;;;;;;;;;4.22;100.00;96063.47;110383;1241;69261;-67
2023/12/01 00:44:05;;;;;;;;;;;;;;;4.24;100.00;96064.50;110360;1242;69297;-67
2023/12/01 00:46:35;;;;;;;;;;;;;;;4.28;100.00;96063.58;110323;1242;59699;-67
2023/12/01 00:49:05;;;;;;;;;;;;;;;4.30;100.00;96064.61;110340;1242;59678;-67
2023/12/01 00:51:35;;;;;;;;;;;;;;;4.31;100.00;96063.16;110439;1242;71889;-68
2023/12/01 00:54:06;;;;;;;;;;;;;;;4.33;100.00;96056.80;110332;1242;68545;-68
2023/12/01 00:56:37;;;;;;;;;;;;;;;4.35;100.00;96055.13;110397;1245;69086;-67
2023/12/01 00:59:09;;;;;;;;;;;;;;;4.38;100.00;96052.04;110212;1245;59667;-67
2023/12/01 01:01:40;;;;;;;;;;;;;;;4.40;100.00;96056.55;110381;1242;59681;-67
2023/12/01 01:04:12;;;;;;;;;;;;;;;4.43;100.00;96048.23;110304;1241;71672;-69
2023/12/01 01:06:43;;;;;;;;;;;;;;;4.44;100.00;96036.62;110417;1242;69115;-68
2023/12/01 01:09:14;;;;;;;;;;;;;;;4.45;100.00;96030.85;110178;1245;69338;-68
2023/12/01 01:11:45;;;;;;;;;;;;;;;4.46;100.00;96030.40;110197;1244;60174;-67
2023/12/01 01:14:15;;;;;;;;;;;;;;;4.47;100.00;96026.38;110180;1245;59702;-67
2023/12/01 01:16:47;;;;;;;;;;;;;;;4.48;100.00;96029.57;110475;1241;71460;-67
2023/12/01 01:19:18;;;;;;;;;;;;;;;4.51;100.00;96034.02;110454;1243;69577;-67
2023/12/01 01:21:48;;;;;;;;;;;;;;;4.53;100.00;96037.98;109942;1241;69851;-67
2023/12/01 01:24:18;;;;;;;;;;;;;;;4.57;100.00;96041.20;110149;1244;59799;-67
2023/12/01 01:26:49;;;;;;;;;;;;;;;4.61;100.00;96040.92;110355;1242;59744;-67
2023/12/01 01:29:19;;;;;;;;;;;;;;;4.64;100.00;96035.58;110414;1242;71404;-67
2023/12/01 01:31:50;;;;;;;;;;;;;;;4.68;100.00;96031.67;110393;1244;69275;-67
2023/12/01 01:34:21;;;;;;;;;;;;;;;4.72;100.00;96019.61;110359;1244;68422;-67
2023/12/01 01:36:55;;;;;;;;;;;;;;;4.75;100.00;96019.54;110455;1242;59628;-67
2023/12/01 01:39:29;;;;;;;;;;;;;;;4.78;100.00;96019.51;110506;1242;59669;-68
2023/12/01 01:42:00;;;;;;;;;;;;;;;4.81;100.00;96020.16;110202;1246;70308;-67
2023/12/01 01:44:35;;;;;;;;;;;;;;;4.85;100.00;96025.25;110140;1241;68327;-68
2023/12/01 01:47:06;;;;;;;;;;;;;;;4.88;100.00;96017.44;110285;1242;68522;-68
2023/12/01 01:49:37;;;;;;;;;;;;;;;4.91;100.00;96003.77;110302;1242;59695;-68
2023/12/01 01:52:07;;;;;;;;;;;;;;;4.94;100.00;96009.77;110346;1242;59667;-68
2023/12/01 01:54:39;;;;;;;;;;;;;;;4.96;100.00;96004.72;110342;1242;71402;-68
2023/12/01 01:57:11;;;;;;;;;;;;;;;4.97;100.00;95998.08;110171;1246;69231;-68
2023/12/01 01:59:44;;;;;;;;;;;;;;;4.99;100.00;95989.17;110116;1245;69190;-68
2023/12/01 02:02:17;;;;;;;;;;;;;;;5.01;100.00;95992.28;110120;1246;59740;-68
2023/12/01 02:04:53;;;;;;;;;;;;;;;5.04;100.00;95988.13;110146;1245;59678;-68
2023/12/01 02:07:27;;;;;;;;;;;;;;;5.05;100.00;95980.38;110177;1242;70444;-67
2023/12/01 02:09:58;;;;;;;;;;;;;;;5.07;100.00;95984.79;110158;1245;69060;-67
2023/12/01 02:12:32;;;;;;;;;;;;;;;5.08;100.00;95981.25;110165;1242;68238;-67
2023/12/01 02:15:10;;;;;;;;;;;;;;;5.09;100.00;95981.17;110177;1243;59703;-67
2023/12/01 02:17:48;;;;;;;;;;;;;;;5.11;100.00;95977.58;110175;1242;59659;-67
2023/12/01 02:20:19;;;;;;;;;;;;;;;5.14;100.00;95977.59;110189;1243;71407;-67
2023/12/01 02:22:53;;;;;;;;;;;;;;;5.15;100.00;95977.31;110218;1242;69278;-67
2023/12/01 02:25:25;;;;;;;;;;;;;;;5.17;100.00;95981.14;110229;1248;69052;-67
2023/12/01 02:27:57;;;;;;;;;;;;;;;5.17;100.00;95984.90;110167;1244;59689;-67
2023/12/01 02:30:28;;;;;;;;;;;;;;;5.16;100.00;95977.89;110205;1246;59666;-67
2023/12/01 02:33:00;;;;;;;;;;;;;;;5.16;100.00;95976.17;110294;1243;71406;-67
2023/12/01 02:35:35;;;;;;;;;;;;;;;5.18;100.00;95976.08;110292;1243;69156;-67
2023/12/01 02:38:05;;;;;;;;;;;;;;;5.19;100.00;95965.92;110190;1243;67593;-66
2023/12/01 02:40:42;;;;;;;;;;;;;;;5.21;100.00;95964.55;110169;1242;60111;-67
2023/12/01 02:43:16;;;;;;;;;;;;;;;5.23;100.00;95968.95;110185;1248;59740;-67
2023/12/01 02:45:47;;;;;;;;;;;;;;;5.27;100.00;95978.48;110168;1244;71456;-67
2023/12/01 02:48:20;;;;;;;;;;;;;;;5.29;100.00;95976.92;110169;1242;69062;-67
2023/12/01 02:50:51;;;;;;;;;;;;;;;5.34;100.00;95975.38;110157;1243;68319;-67
2023/12/01 02:53:21;;;;;;;;;;;;;;;5.36;100.00;95977.08;110179;1243;59734;-67
2023/12/01 02:55:52;;;;;;;;;;;;;;;5.40;100.00;95971.64;110249;1243;59638;-68
2023/12/01 02:58:26;;;;;;;;;;;;;;;5.43;100.00;95974.52;110244;1247;71424;-67
2023/12/01 03:01:03;;;;;;;;;;;;;;;5.46;100.00;95967.58;110321;1241;69229;-67
2023/12/01 03:03:36;;;;;;;;;;;;;;;5.48;100.00;95967.77;110467;1241;69096;-67
2023/12/01 03:06:09;;;;;;;;;;;;;;;5.50;100.00;95966.56;110178;1252;59743;-66
2023/12/01 03:08:39;;;;;;;;;;;;;;;5.52;100.00;95975.05;110350;1242;60267;-67
2023/12/01 03:11:09;;;;;;;;;;;;;;;5.55;100.00;95973.77;110138;1244;71421;-67
2023/12/01 03:13:39;;;;;;;;;;;;;;;5.58;100.00;95970.23;110380;1242;69038;-67
2023/12/01 03:16:11;;;;;;;;;;;;;;;5.61;100.00;95972.41;110179;1240;68596;-67
2023/12/01 03:18:41;;;;;;;;;;;;;;;5.63;100.00;95971.42;110466;1242;59744;-67
2023/12/01 03:21:16;;;;;;;;;;;;;;;5.64;100.00;95983.80;110138;1240;59688;-67
2023/12/01 03:23:53;;;;;;;;;;;;;;;5.66;100.00;95984.37;110345;1242;71466;-67
2023/12/01 03:26:23;;;;;;;;;;;;;;;5.67;100.00;95973.38;110347;1242;69269;-67
2023/12/01 03:28:57;;;;;;;;;;;;;;;5.68;100.00;95963.77;110360;1242;68558;-67
2023/12/01 03:31:28;;;;;;;;;;;;;;;5.71;100.00;95961.04;110397;1244;59727;-67
2023/12/01 03:33:59;;;;;;;;;;;;;;;5.72;100.00;95954.13;110335;1242;60166;-67
2023/12/01 03:36:29;;;;;;;;;;;;;;;5.74;100.00;95955.72;110307;1242;70509;-67
2023/12/01 03:38:58;;;;;;;;;;;;;;;5.75;100.00;95961.84;110303;1242;70209;-67
2023/12/01 03:41:28;;;;;;;;;;;;;;;5.77;100.00;95956.56;110167;1246;68554;-67
2023/12/01 03:43:59;;;;;;;;;;;;;;;5.80;100.00;95961.16;110343;1242;60123;-67
2023/12/01 03:46:29;;;;;;;;;;;;;;;5.83;100.00;95957.48;110365;1242;59646;-67
2023/12/01 03:48:59;;;;;;;;;;;;;;;5.86;100.00;95938.92;110175;1240;70481;-68
2023/12/01 03:51:32;;;;;;;;;;;;;;;5.87;100.00;95928.63;110472;1242;69061;-68
2023/12/01 03:54:01;;;;;;;;;;;;;;;5.89;100.00;95926.43;110350;1242;68508;-67
2023/12/01 03:56:31;;;;;;;;;;;;;;;5.90;100.00;95930.29;110393;1242;59693;-67
2023/12/01 03:59:00;;;;;;;;;;;;;;;5.92;100.00;95946.60;110310;1242;59711;-67
2023/12/01 04:01:30;;;;;;;;;;;;;;;5.93;100.00;95938.59;110528;1242;71446;-67
2023/12/01 04:04:00;;;;;;;;;;;;;;;5.94;100.00;95929.13;110321;1243;69281;-67
2023/12/01 04:06:32;;;;;;;;;;;;;;;5.95;100.00;95933.02;110313;1241;69805;-67
2023/12/01 04:09:05;;;;;;;;;;;;;;;5.96;100.00;95932.48;110315;1242;59657;-67
2023/12/01 04:11:36;;;;;;;;;;;;;;;5.97;100.00;95925.17;110343;1242;59734;-67
2023/12/01 04:14:06;;;;;;;;;;;;;;;5.98;100.00;95925.59;110333;1242;70578;-67
2023/12/01 04:16:40;;;;;;;;;;;;;;;5.98;100.00;95914.70;110335;1241;69326;-67
2023/12/01 04:19:10;;;;;;;;;;;;;;;5.96;100.00;95910.48;110125;1245;69257;-67
2023/12/01 04:21:40;;;;;;;;;;;;;;;5.97;100.00;95915.41;110243;1242;59667;-67
2023/12/01 04:24:11;;;;;;;;;;;;;;;5.98;100.00;95907.02;110308;1244;59747;-67
2023/12/01 04:26:42;;;;;;;;;;;;;;;6.01;100.00;95906.64;110153;1246;70659;-67
2023/12/01 04:29:13;;;;;;;;;;;;;;;6.04;100.00;95896.38;110267;1243;69562;-67
2023/12/01 04:31:44;;;;;;;;;;;;;;;6.05;100.00;95898.01;110300;1245;69206;-67
2023/12/01 04:34:29;;;;;;;;;;;;;;;6.07;100.00;95897.70;110281;1242;59666;-67
2023/12/01 04:37:00;;;;;;;;;;;;;;;6.08;100.00;95892.08;110402;1241;60108;-66
2023/12/01 04:39:32;;;;;;;;;;;;;;;6.08;100.00;95898.47;110305;1241;71225;-67
2023/12/01 04:42:02;;;;;;;;;;;;;;;6.09;100.00;95909.45;110325;1242;68488;-67
2023/12/01 04:44:33;;;;;;;;;;;;;;;6.11;100.00;95910.38;110385;1241;68525;-67
2023/12/01 04:47:05;;;;;;;;;;;;;;;6.14;100.00;95911.71;110348;1243;59678;-67
2023/12/01 04:49:35;;;;;;;;;;;;;;;6.18;100.00;95915.55;110285;1242;59661;-67
2023/12/01 04:52:05;;;;;;;;;;;;;;;6.22;100.00;95905.33;110167;1241;71402;-67
2023/12/01 04:54:37;;;;;;;;;;;;;;;6.25;100.00;95904.39;110337;1241;68503;-67
2023/12/01 04:57:08;;;;;;;;;;;;;;;6.27;100.00;95907.67;110448;1247;69504;-67
2023/12/01 04:59:37;;;;;;;;;;;;;;;6.30;100.00;95908.71;110354;1242;59741;-67
2023/12/01 05:02:07;;;;;;;;;;;;;;;6.29;100.00;95905.49;110311;1244;59627;-67
2023/12/01 05:04:37;;;;;;;;;;;;;;;6.29;100.00;95906.69;110313;1242;71253;-67
2023/12/01 05:07:08;;;;;;;;;;;;;;;6.30;100.00;95903.67;110321;1241;68511;-67
2023/12/01 05:09:41;;;;;;;;;;;;;;;6.31;100.00;95896.84;110508;1242;69313;-67
2023/12/01 05:12:11;;;;;;;;;;;;;;;6.31;100.00;95900.80;110342;1242;59699;-66
2023/12/01 05:14:43;;;;;;;;;;;;;;;6.31;100.00;95907.72;110345;1242;59750;-67
2023/12/01 05:17:13;;;;;;;;;;;;;;;6.31;100.00;95908.09;110339;1242;70798;-66
2023/12/01 05:19:44;;;;;;;;;;;;;;;6.31;100.00;95907.23;110342;1242;69249;-67
2023/12/01 05:22:13;;;;;;;;;;;;;;;6.31;100.00;95909.44;110342;1242;69133;-66
2023/12/01 05:24:43;;;;;;;;;;;;;;;6.32;100.00;95913.58;110297;1240;59634;-66
2023/12/01 05:27:13;;;;;;;;;;;;;;;6.33;100.00;95912.77;110358;1241;59627;-67
2023/12/01 05:29:44;;;;;;;;;;;;;;;6.33;100.00;95909.50;110328;1241;71444;-67
2023/12/01 05:32:14;;;;;;;;;;;;;;;6.33;100.00;95908.09;110275;1242;68515;-67
2023/12/01 05:34:44;;;;;;;;;;;;;;;6.35;100.00;95913.98;110346;1242;68677;-67
2023/12/01 05:37:14;;;;;;;;;;;;;;;6.38;100.00;95920.19;110294;1241;59681;-67
2023/12/01 05:39:43;;;;;;;;;;;;;;;6.41;100.00;95923.73;110317;1242;59700;-67
2023/12/01 05:42:13;;;;;;;;;;;;;;;6.44;100.00;95928.66;110312;1242;71388;-67
2023/12/01 05:44:42;;;;;;;;;;;;;;;6.46;100.00;95928.14;110312;1241;68476;-67
2023/12/01 05:47:11;;;;;;;;;;;;;;;6.49;100.00;95920.98;110321;1242;68255;-67
2023/12/01 05:49:41;;;;;;;;;;;;;;;6.52;100.00;95921.83;110318;1241;60008;-67
2023/12/01 05:52:11;;;;;;;;;;;;;;;6.55;100.00;95924.65;110334;1240;59689;-67
2023/12/01 05:54:40;;;;;;;;;;;;;;;6.59;100.00;95926.91;110309;1241;72304;-67
2023/12/01 05:57:11;;;;;;;;;;;;;;;6.62;100.00;95927.58;110479;1241;68477;-67
2023/12/01 05:59:42;;;;;;;;;;;;;;;6.66;100.00;95926.91;110387;1241;68551;-67
2023/12/01 06:02:12;;;;;;;;;;;;;;;6.70;100.00;95930.27;110376;1241;59675;-67
2023/12/01 06:04:41;;;;;;;;;;;;;;;6.72;100.00;95921.78;110345;1249;59694;-67
2023/12/01 06:07:11;;;;;;;;;;;;;;;6.75;100.00;95917.87;110375;1241;71232;-67
2023/12/01 06:09:40;;;;;;;;;;;;;;;6.78;100.00;95920.08;110307;1242;69211;-67
2023/12/01 06:12:10;;;;;;;;;;;;;;;6.79;100.00;95919.27;110301;1241;69293;-67
2023/12/01 06:14:40;;;;;;;;;;;;;;;6.79;100.00;95916.96;110402;1241;59674;-67
2023/12/01 06:17:10;;;;;;;;;;;;;;;6.83;100.00;95915.47;110460;1240;59702;-67
2023/12/01 06:19:39;;;;;;;;;;;;;;;6.88;100.00;95926.83;110503;1241;70755;-67
2023/12/01 06:22:08;;;;;;;;;;;;;;;6.92;100.00;95923.44;110309;1241;68679;-67
2023/12/01 06:24:38;;;;;;;;;;;;;;;6.92;100.00;95927.02;110278;1241;69210;-67
2023/12/01 06:27:07;;;;;;;;;;;;;;;6.92;100.00;95923.90;110417;1240;59696;-67
2023/12/01 06:29:37;;;;;;;;;;;;;;;6.92;100.00;95927.05;110328;1241;59692;-67
2023/12/01 06:32:06;;;;;;;;;;;;;;;6.93;100.00;95930.23;110357;1242;71972;-66
2023/12/01 06:34:35;;;;;;;;;;;;;;;6.96;100.00;95933.52;110450;1242;68695;-67
2023/12/01 06:37:04;;;;;;;;;;;;;;;6.97;100.00;95938.22;110359;1242;68579;-67
2023/12/01 06:39:33;;;;;;;;;;;;;;;7.01;100.00;95940.68;110483;1240;59678;-67
2023/12/01 06:42:02;;;;;;;;;;;;;;;7.05;100.00;95938.30;110389;1241;59689;-67
2023/12/01 06:44:34;;;;;;;;;;;;;;;7.09;100.00;95940.34;110409;1242;71488;-67
2023/12/01 06:47:03;;;;;;;;;;;;;;;7.17;100.00;95944.64;110500;1241;69325;-67
2023/12/01 06:49:32;;;;;;;;;;;;;;;7.23;100.00;95940.63;110339;1241;69396;-67
2023/12/01 06:52:02;;;;;;;;;;;;;;;7.27;100.00;95953.85;110359;1241;59707;-67
2023/12/01 06:54:31;;;;;;;;;;;;;;;7.29;100.00;95957.08;110315;1241;59674;-68
2023/12/01 06:57:00;;;;;;;;;;;;;;;7.30;100.00;95958.59;110400;1241;72457;-68
2023/12/01 06:59:30;;;;;;;;;;;;;;;7.32;100.00;95964.64;110384;1241;68498;-66
2023/12/01 07:02:00;;;;;;;;;;;;;;;7.36;100.00;95962.27;110345;1241;69302;-68
2023/12/01 07:04:32;;;;;;;;;;;;;;;7.41;100.00;95969.08;110473;1241;59795;-67
2023/12/01 07:07:03;;;;;;;;;;;;;;;7.48;100.00;95972.71;110517;1242;59666;-67
2023/12/01 07:09:32;;;;;;;;;;;;;;;7.52;100.00;95969.05;110425;1240;71288;-67
2023/12/01 07:12:06;;;;;;;;;;;;;;;7.58;100.00;95971.14;110383;1239;69279;-67
2023/12/01 07:14:36;;;;;;;;;;;;;;;7.65;100.00;95973.36;110380;1240;67791;-64
2023/12/01 07:17:05;;;;;;;;;;;;;;;7.72;100.00;95972.80;110448;1242;59720;-68
2023/12/01 07:19:35;;;;;;;;;;;;;;;7.78;100.00;95977.46;110347;1241;60069;-68
2023/12/01 07:22:04;;;;;;;;;;;;;;;7.82;100.00;95978.13;110474;1241;71365;-67
2023/12/01 07:24:33;;;;;;;;;;;;;;;7.88;100.00;95982.48;110523;1249;69823;-67
2023/12/01 07:27:02;;;;;;;;;;;;;;;7.92;100.00;95984.41;110451;1242;69862;-66
2023/12/01 07:29:31;;;;;;;;;;;;;;;7.96;100.00;95986.32;110410;1241;59745;-67
2023/12/01 07:32:01;;;;;;;;;;;;;;;8.00;100.00;95985.87;110429;1242;59689;-68
2023/12/01 07:34:31;;;;;;;;;;;;;;;8.05;100.00;95992.04;110443;1241;71822;-66
2023/12/01 07:37:00;;;;;;;;;;;;;;;8.10;100.00;95994.55;110387;1242;68804;-68
2023/12/01 07:39:29;;;;;;;;;;;;;;;8.14;100.00;95997.77;110446;1249;69284;-67
2023/12/01 07:41:58;;;;;;;;;;;;;;;8.20;100.00;95993.52;110358;1241;59702;-67
2023/12/01 07:44:28;;;;;;;;;;;;;;;8.24;100.00;95986.54;110335;1241;59692;-68
2023/12/01 07:46:57;;;;;;;;;;;;;;;8.29;100.00;95988.17;110342;1241;70704;-66
2023/12/01 07:49:26;;;;;;;;;;;;;;;8.34;100.00;95984.28;110317;1249;69222;-66
2023/12/01 07:51:56;;;;;;;;;;;;;;;8.40;100.00;95977.94;110325;1241;68671;-66
2023/12/01 07:54:26;;;;;;;;;;;;;;;8.45;100.00;95979.27;110432;1241;59759;-66
2023/12/01 07:56:54;;;;;;;;;;;;;;;8.50;100.00;95982.44;110333;1241;59725;-67
2023/12/01 07:59:24;;;;;;;;;;;;;;;8.56;100.00;95989.36;110293;1241;71419;-66
2023/12/01 08:01:53;;;;;;;;;;;;;;;8.61;100.00;95988.91;110430;1241;69220;-66
2023/12/01 08:04:22;;;;;;;;;;;;;;;8.65;100.00;95986.84;110291;1241;69311;-66
2023/12/01 08:06:52;;;;;;;;;;;;;;;8.69;100.00;95987.58;110169;1241;59699;-67
2023/12/01 08:09:22;;;;;;;;;;;;;;;8.74;100.00;95986.95;110311;1241;59667;-66
2023/12/01 08:11:51;;;;;;;;;;;;;;;8.80;100.00;95989.04;110293;1241;71992;-66
2023/12/01 08:14:20;;;;;;;;;;;;;;;8.86;100.00;95998.32;110300;1240;69200;-66
2023/12/01 08:16:50;;;;;;;;;;;;;;;8.94;100.00;96002.74;110283;1241;67667;-66
2023/12/01 08:19:19;;;;;;;;;;;;;;;8.98;100.00;96001.48;110328;1241;59744;-67
2023/12/01 08:21:49;;;;;;;;;;;;;;;9.03;100.00;96005.16;110384;1241;59681;-66
2023/12/01 08:24:17;;;;;;;;;;;;;;;9.08;100.00;96010.63;110269;1241;71329;-66
2023/12/01 08:27:00;;;;;;;;;;;;;;;9.14;100.00;95999.52;110338;1242;69573;-67
2023/12/01 08:29:29;;;;;;;;;;;;;;;9.20;100.00;96000.55;110333;1249;69108;-66
2023/12/01 08:32:00;;;;;;;;;;;;;;;9.26;100.00;96000.70;110297;1241;60141;-67
2023/12/01 08:34:29;;;;;;;;;;;;;;;9.32;100.00;96000.53;110343;1240;59720;-66
2023/12/01 08:36:57;;;;;;;;;;;;;;;9.38;100.00;96000.70;110376;1242;71379;-67
2023/12/01 08:39:28;;;;;;;;;;;;;;;9.44;100.00;95999.95;110305;1241;69381;-67
2023/12/01 08:41:56;;;;;;;;;;;;;;;9.50;100.00;95993.70;110245;1242;68729;-67
2023/12/01 08:44:26;;;;;;;;;;;;;;;9.58;100.00;95986.86;110358;1241;59737;-67
2023/12/01 08:46:55;;;;;;;;;;;;;;;9.67;100.00;95981.30;110277;1241;59679;-67
2023/12/01 08:49:24;;;;;;;;;;;;;;;9.77;100.00;95976.03;110246;1241;71215;-67
2023/12/01 08:51:55;;;;;;;;;;;;;;;9.91;100.00;95971.45;110301;1241;69011;-67
2023/12/01 08:54:23;;;;;;;;;;;;;;;10.05;100.00;95970.54;110278;1249;69325;-68
2023/12/01 08:56:53;;;;;;;;;;;;;;;10.22;100.00;95968.55;110279;1241;59692;-68
2023/12/01 08:59:23;;;;;;;;;;;;;;;10.40;100.00;95966.70;110375;1244;60161;-68
2023/12/01 09:01:52;;;;;;;;;;;;;;;10.55;100.00;95970.86;110380;1244;71744;-69
2023/12/01 09:04:22;;;;;;;;;;;;;;;10.65;100.00;95974.63;110458;1241;69214;-68
2023/12/01 09:06:50;;;;;;;;;;;;;;;10.74;100.00;95974.84;110403;1242;69274;-68
2023/12/01 09:09:20;;;;;;;;;;;;;;;10.78;100.00;95976.89;110376;1243;59698;-67
2023/12/01 09:11:51;;;;;;;;;;;;;;;10.81;100.00;95974.48;110352;1241;59750;-68
2023/12/01 09:14:20;;;;;;;;;;;;;;;10.85;100.00;95968.01;110315;1241;71421;-69
2023/12/01 09:16:50;;;;;;;;;;;;;;;10.88;100.00;95963.13;110402;1241;69784;-68
2023/12/01 09:19:19;;;;;;;;;;;;;;;10.91;100.00;95962.36;110377;1241;68545;-68
2023/12/01 09:21:48;;;;;;;;;;;;;;;10.95;100.00;95957.61;110424;1240;59751;-67
2023/12/01 09:24:17;;;;;;;;;;;;;;;10.99;100.00;95963.46;110380;1241;59673;-68
2023/12/01 09:26:50;;;;;;;;;;;;;;;11.04;100.00;95967.89;110406;1241;72260;-68
2023/12/01 09:29:19;;;;;;;;;;;;;;;11.08;100.00;95961.91;110403;1241;69766;-67
2023/12/01 09:31:48;;;;;;;;;;;;;;;11.12;100.00;95958.42;110269;1241;69298;-68
2023/12/01 09:34:17;;;;;;;;;;;;;;;11.17;100.00;95955.27;110132;1243;59756;-68
2023/12/01 09:36:46;;;;;;;;;;;;;;;11.22;100.00;95954.77;110267;1241;59696;-68
2023/12/01 09:39:15;;;;;;;;;;;;;;;11.26;100.00;95956.11;110273;1242;71268;-68
2023/12/01 09:41:46;;;;;;;;;;;;;;;11.32;100.00;95954.83;110318;1241;69113;-68
2023/12/01 09:44:16;;;;;;;;;;;;;;;11.40;100.00;95954.88;110271;1244;68528;-68
2023/12/01 09:46:47;;;;;;;;;;;;;;;11.53;100.00;95952.77;110279;1241;59709;-67
2023/12/01 09:49:18;;;;;;;;;;;;;;;11.65;100.00;95953.08;110306;1241;59740;-69
2023/12/01 09:51:46;;;;;;;;;;;;;;;11.75;100.00;95947.25;110322;1241;71427;-67
2023/12/01 09:54:15;;;;;;;;;;;;;;;11.84;100.00;95947.73;110279;1242;68314;-67
2023/12/01 09:56:44;;;;;;;;;;;;;;;11.89;100.00;95947.98;110293;1240;68720;-68
2023/12/01 09:59:16;;;;;;;;;;;;;;;11.93;100.00;95944.12;110338;1241;59738;-68
2023/12/01 10:01:47;;;;;;;;;;;;;;;11.96;100.00;95943.89;110311;1242;59758;-68
2023/12/01 10:04:16;;;;;;;;;;;;;;;12.00;100.00;95940.94;110305;1241;72050;-67
2023/12/01 10:06:46;;;;;;;;;;;;;;;12.04;100.00;95936.09;110258;1241;69804;-68
2023/12/01 10:09:25;;;;;;;;;;;;;;;12.14;100.00;95932.85;110280;1241;69494;-67
2023/12/01 10:12:06;;;;;;;;;;;;;;;12.25;100.00;95934.31;110333;1241;59691;-66
2023/12/01 10:14:36;;;;;;;;;;;;;;;12.36;100.00;95930.89;110372;1241;59662;-67
2023/12/01 10:17:07;;;;;;;;;;;;;;;12.47;100.00;95927.88;110250;1242;70821;-67
2023/12/01 10:19:47;;;;;;;;;;;;;;;12.59;100.00;95922.60;110313;1241;69818;-67
2023/12/01 10:22:16;;;;;;;;;;;;;;;12.73;100.00;95918.50;110282;1241;69911;-68
2023/12/01 10:24:55;;;;;;;;;;;;;;;12.89;100.00;95918.56;110275;1240;59763;-67
2023/12/01 10:27:24;;;;;;;;;;;;;;;13.07;100.00;95917.40;110317;1242;59699;-67
2023/12/01 10:30:08;;;;;;;;;;;;;;;13.27;100.00;95909.01;110338;1241;71336;-67
2023/12/01 10:32:38;;;;;;;;;;;;;;;13.45;99.79;95903.97;110295;1241;68247;-67
2023/12/01 10:35:07;;;;;;;;;;;;;;;13.61;99.64;95900.84;110305;1240;68567;-67
2023/12/01 10:37:37;;;;;;;;;;;;;;;13.78;99.86;95901.33;110265;1241;59720;-67
2023/12/01 10:40:08;;;;;;;;;;;;;;;13.95;99.88;95903.94;110289;1241;59741;-67
2023/12/01 10:42:37;;;;;;;;;;;;;;;14.10;96.33;95893.19;110301;1241;70630;-67
2023/12/01 10:45:06;;;;;;;;;;;;;;;14.30;96.58;95895.56;110337;1241;69759;-67
2023/12/01 10:47:36;;;;;;;;;;;;;;;14.57;94.55;95893.70;110300;1241;68603;-68
2023/12/01 10:50:05;;;;;;;;;;;;;;;14.97;91.09;95889.26;110255;1241;59756;-68
2023/12/01 10:52:36;;;;;;;;;;;;;;;15.27;91.07;95891.16;110335;1241;59697;-67
2023/12/01 10:55:05;;;;;;;;;;;;;;;15.54;86.39;95886.98;110363;1241;71330;-67
2023/12/01 10:57:36;;;;;;;;;;;;;;;15.87;85.42;95886.62;110275;1241;68555;-67
2023/12/01 11:00:19;;;;;;;;;;;;;;;16.29;84.14;95885.20;109816;1243;638354;-67
2023/12/01 11:02:50;;;;;;;;;;;;;;;16.85;82.31;95884.69;110388;1241;59696;-66
2023/12/01 11:05:20;;;;;;;;;;;;;;;17.09;81.78;95885.00;110281;1241;59685;-66
2023/12/01 11:07:52;;;;;;;;;;;;;;;17.15;82.39;95881.23;110292;1242;71997;-67
2023/12/01 11:10:27;;;;;;;;;;;;;;;17.13;79.43;95881.80;110288;1241;70195;-67
2023/12/01 11:13:07;;;;;;;;;;;;;;;17.18;79.73;95881.70;110234;1241;69295;-67
2023/12/01 11:15:37;;;;;;;;;;;;;;;17.09;78.90;95879.68;110242;1241;59690;-66
2023/12/01 11:18:08;;;;;;;;;;;;;;;16.92;78.94;95879.52;110325;1241;59686;-67
2023/12/01 11:20:41;;;;;;;;;;;;;;;16.73;78.95;95876.88;110367;1242;71192;-67
2023/12/01 11:23:12;;;;;;;;;;;;;;;16.52;78.30;95870.29;110333;1242;68070;-68
2023/12/01 11:25:50;;;;;;;;;;;;;;;16.34;78.70;95869.65;110315;1247;69716;-67
2023/12/01 11:28:27;;;;;;;;;;;;;;;16.19;79.84;95868.32;110273;1241;59686;-67
2023/12/01 11:30:59;;;;;;;;;;;;;;;16.03;79.95;95857.23;110334;1242;59692;-67
2023/12/01 11:33:32;;;;;;;;;;;;;;;15.89;80.12;95853.25;110288;1242;70425;-67
2023/12/01 11:36:20;;;;;;;;;;;;;;;15.79;80.71;95851.05;110307;1241;69134;-67
2023/12/01 11:41:46;;;;;;;;;;;;;;;15.68;81.31;95861.63;110263;1241;59725;-67
2023/12/01 11:44:37;;;;;;;;;;;;;;;15.60;80.98;95871.21;110271;1241;59709;-67
2023/12/01 11:47:09;;;;;;;;;;;;;;;15.54;81.07;95873.11;110305;1240;70345;-67
2023/12/01 11:49:39;;;;;;;;;;;;;;;15.53;81.86;95873.54;110282;1241;69260;-67
2023/12/01 11:52:13;;;;;;;;;;;;;;;15.64;81.39;95870.44;110303;1241;70171;-67
2023/12/01 11:54:42;;;;;;;;;;;;;;;15.73;81.46;95874.46;110325;1241;59675;-67
2023/12/01 11:57:18;;;;;;;;;;;;;;;15.80;82.04;95868.38;110256;1241;59646;-67
2023/12/01 11:59:49;;;;;;;;;;;;;;;15.91;81.52;95870.26;110244;1241;71867;-67
2023/12/01 12:02:29;;;;;;;;;;;;;;;15.97;81.80;95871.23;110231;1242;69767;-69
2023/12/01 12:05:01;;;;;;;;;;;;;;;15.99;81.89;95871.48;110223;1240;68548;-69
2023/12/01 12:07:30;;;;;;;;;;;;;;;15.96;80.89;95878.03;110227;1243;59698;-68
2023/12/01 12:10:00;;;;;;;;;;;;;;;15.80;81.55;95868.21;110222;1241;59721;-67
2023/12/01 12:12:30;;;;;;;;;;;;;;;15.62;81.42;95861.85;110258;1242;71356;-67
2023/12/01 12:15:08;;;;;;;;;;;;;;;15.53;82.52;95861.95;110211;1243;69850;-67
2023/12/01 12:17:38;;;;;;;;;;;;;;;15.49;82.47;95867.16;110167;1242;69421;-67
2023/12/01 12:20:09;;;;;;;;;;;;;;;15.60;81.98;95870.98;110188;1244;59730;-67
2023/12/01 12:22:44;;;;;;;;;;;;;;;15.63;82.30;95871.73;110176;1242;59694;-66
2023/12/01 12:25:14;;;;;;;;;;;;;;;15.61;82.85;95875.52;110216;1241;71380;-68
2023/12/01 12:27:44;;;;;;;;;;;;;;;15.61;83.69;95874.29;110187;1242;69782;-68
2023/12/01 12:30:15;;;;;;;;;;;;;;;15.59;83.27;95875.05;110220;1242;69870;-68
2023/12/01 12:32:44;;;;;;;;;;;;;;;15.53;83.02;95871.08;110183;1242;59708;-67
2023/12/01 12:35:14;;;;;;;;;;;;;;;15.53;83.64;95861.14;110222;1243;59758;-67
2023/12/01 12:37:43;;;;;;;;;;;;;;;15.54;84.23;95866.27;110201;1241;72045;-67
2023/12/01 12:40:14;;;;;;;;;;;;;;;15.55;83.92;95868.27;110189;1242;69496;-67
2023/12/01 12:42:56;;;;;;;;;;;;;;;15.56;84.29;95862.52;110166;1250;70358;-67
2023/12/01 12:45:25;;;;;;;;;;;;;;;15.58;84.21;95859.52;110209;1242;59805;-67
2023/12/01 12:48:02;;;;;;;;;;;;;;;15.58;84.60;95855.17;110207;1241;59696;-67
2023/12/01 12:50:37;;;;;;;;;;;;;;;15.56;83.80;95849.89;110222;1242;71317;-66
2023/12/01 12:53:07;;;;;;;;;;;;;;;15.59;84.45;95846.20;110204;1242;69802;-65
2023/12/01 12:55:36;;;;;;;;;;;;;;;15.60;84.41;95854.19;110173;1243;69143;-66
2023/12/01 12:58:06;;;;;;;;;;;;;;;15.59;84.50;95847.41;110179;1244;59699;-66